Terminal Aerodrome Forecast
Issued by NWS Atlanta, GA

Home | Current Version | Previous Version | Text Only | Print | Product List | Glossary On
Versions: 1 2 3 4 5 6 7 8 9 10 11 12 13 14 15 16 17 18 19 20 21 22 23 24 25 26 27 28 29 30 31 32 33 34 35
000
FTAK31 PAJN 281400 AAA
TAFAHN
TAF AMD
PAHN 281441Z 2815/2912 09006KT P6SM SCT020 OVC080
     FM281800 30008KT P6SM FEW025 BKN080
     FM290000 09006KT P6SM -RA FEW015 BKN025 OVC050
      AMD LTD TO CLD VIS AND WIND=

USA.gov is the U.S. government's official web portal to all federal, state and local government web resources and services.